sensor_id;sensor_type;location;lat;lon;timestamp;pressure;altitude;pressure_sealevel;temperature;humidity
74372;BME280;62885;51.374;6.170;2022-12-07T00:00:39;101550.94;;;4.96;93.28
74372;BME280;62885;51.374;6.170;2022-12-07T00:03:04;101542.88;;;5.00;93.43
74372;BME280;62885;51.374;6.170;2022-12-07T00:05:30;101550.06;;;4.96;93.54
74372;BME280;62885;51.374;6.170;2022-12-07T00:07:55;101551.81;;;4.97;94.02
74372;BME280;62885;51.374;6.170;2022-12-07T00:10:20;101544.84;;;4.94;93.76
74372;BME280;62885;51.374;6.170;2022-12-07T00:12:46;101540.09;;;5.03;93.66
74372;BME280;62885;51.374;6.170;2022-12-07T00:15:11;101549.84;;;5.02;93.66
74372;BME280;62885;51.374;6.170;2022-12-07T00:17:36;101544.53;;;5.02;93.43
74372;BME280;62885;51.374;6.170;2022-12-07T00:20:02;101544.75;;;4.96;93.65
74372;BME280;62885;51.374;6.170;2022-12-07T00:22:27;101535.03;;;4.96;93.38
74372;BME280;62885;51.374;6.170;2022-12-07T00:24:53;101541.09;;;5.00;93.47
74372;BME280;62885;51.374;6.170;2022-12-07T00:27:18;101539.13;;;5.05;92.99
74372;BME280;62885;51.374;6.170;2022-12-07T00:29:43;101533.28;;;4.95;93.06
74372;BME280;62885;51.374;6.170;2022-12-07T00:32:09;101536.88;;;4.94;93.42
74372;BME280;62885;51.374;6.170;2022-12-07T00:34:34;101534.53;;;4.87;93.20
74372;BME280;62885;51.374;6.170;2022-12-07T00:36:59;101528.47;;;4.83;93.53
74372;BME280;62885;51.374;6.170;2022-12-07T00:39:25;101531.94;;;4.85;93.73
74372;BME280;62885;51.374;6.170;2022-12-07T00:41:50;101533.75;;;4.83;93.82
74372;BME280;62885;51.374;6.170;2022-12-07T00:44:15;101536.41;;;4.83;93.69
74372;BME280;62885;51.374;6.170;2022-12-07T00:46:41;101539.19;;;4.80;93.74
74372;BME280;62885;51.374;6.170;2022-12-07T00:49:06;101534.09;;;4.76;94.02
74372;BME280;62885;51.374;6.170;2022-12-07T00:51:31;101524.34;;;4.76;93.87
74372;BME280;62885;51.374;6.170;2022-12-07T00:53:57;101520.94;;;4.73;93.65
74372;BME280;62885;51.374;6.170;2022-12-07T00:56:24;101524.63;;;4.69;93.77
74372;BME280;62885;51.374;6.170;2022-12-07T00:58:54;101524.63;;;4.69;94.29
74372;BME280;62885;51.374;6.170;2022-12-07T01:01:21;101523.75;;;4.68;93.79
74372;BME280;62885;51.374;6.170;2022-12-07T01:03:48;101515.84;;;4.67;93.93
74372;BME280;62885;51.374;6.170;2022-12-07T01:06:15;101513.97;;;4.70;93.90
74372;BME280;62885;51.374;6.170;2022-12-07T01:08:41;101512.91;;;4.74;94.13
74372;BME280;62885;51.374;6.170;2022-12-07T01:11:09;101517.41;;;4.72;94.27
74372;BME280;62885;51.374;6.170;2022-12-07T01:13:35;101511.56;;;4.64;94.20
74372;BME280;62885;51.374;6.170;2022-12-07T01:16:04;101517.81;;;4.62;93.92
74372;BME280;62885;51.374;6.170;2022-12-07T01:18:31;101519.56;;;4.63;94.33
74372;BME280;62885;51.374;6.170;2022-12-07T01:21:02;101513.44;;;4.61;93.95
74372;BME280;62885;51.374;6.170;2022-12-07T01:23:29;101523.38;;;4.55;94.22
74372;BME280;62885;51.374;6.170;2022-12-07T01:25:58;101511.84;;;4.57;94.10
74372;BME280;62885;51.374;6.170;2022-12-07T01:28:24;101517.88;;;4.60;94.07
74372;BME280;62885;51.374;6.170;2022-12-07T01:31:02;101512.22;;;4.47;94.19
74372;BME280;62885;51.374;6.170;2022-12-07T01:33:29;101512.59;;;4.37;95.13
74372;BME280;62885;51.374;6.170;2022-12-07T01:36:04;101515.22;;;4.37;94.99
74372;BME280;62885;51.374;6.170;2022-12-07T01:38:30;101512.31;;;4.44;94.84
74372;BME280;62885;51.374;6.170;2022-12-07T01:40:56;101514.50;;;4.33;95.17
74372;BME280;62885;51.374;6.170;2022-12-07T01:43:23;101520.66;;;4.34;95.09
74372;BME280;62885;51.374;6.170;2022-12-07T01:45:49;101524.22;;;4.33;94.72
74372;BME280;62885;51.374;6.170;2022-12-07T01:48:16;101523.38;;;4.32;94.91
74372;BME280;62885;51.374;6.170;2022-12-07T01:50:45;101525.31;;;4.27;94.76
74372;BME280;62885;51.374;6.170;2022-12-07T01:53:12;101524.47;;;4.27;94.95
74372;BME280;62885;51.374;6.170;2022-12-07T01:55:41;101517.09;;;4.35;94.81
74372;BME280;62885;51.374;6.170;2022-12-07T01:58:08;101518.88;;;4.34;94.83
74372;BME280;62885;51.374;6.170;2022-12-07T02:00:34;101511.25;;;4.25;94.77
74372;BME280;62885;51.374;6.170;2022-12-07T02:03:04;101511.34;;;4.24;94.66
74372;BME280;62885;51.374;6.170;2022-12-07T02:05:33;101506.81;;;4.26;94.73
74372;BME280;62885;51.374;6.170;2022-12-07T02:07:59;101491.38;;;4.13;95.36
74372;BME280;62885;51.374;6.170;2022-12-07T02:10:28;101500.13;;;4.16;95.28
74372;BME280;62885;51.374;6.170;2022-12-07T02:13:01;101497.63;;;4.12;95.30
74372;BME280;62885;51.374;6.170;2022-12-07T02:20:58;101510.97;;;4.09;95.32
74372;BME280;62885;51.374;6.170;2022-12-07T02:28:37;101518.91;;;4.09;94.96
74372;BME280;62885;51.374;6.170;2022-12-07T02:31:16;101514.22;;;4.18;94.77
74372;BME280;62885;51.374;6.170;2022-12-07T02:33:54;101514.94;;;4.21;95.08
74372;BME280;62885;51.374;6.170;2022-12-07T02:36:27;101513.16;;;4.22;94.46
74372;BME280;62885;51.374;6.170;2022-12-07T02:39:02;101513.22;;;4.20;94.54
74372;BME280;62885;51.374;6.170;2022-12-07T02:41:36;101507.13;;;4.18;95.10
74372;BME280;62885;51.374;6.170;2022-12-07T02:44:07;101509.19;;;4.10;95.00
74372;BME280;62885;51.374;6.170;2022-12-07T02:46:38;101510.09;;;4.09;94.91
74372;BME280;62885;51.374;6.170;2022-12-07T02:49:06;101506.44;;;4.13;94.80
74372;BME280;62885;51.374;6.170;2022-12-07T02:51:52;101509.13;;;4.11;95.11
74372;BME280;62885;51.374;6.170;2022-12-07T02:54:19;101509.13;;;4.11;94.92
74372;BME280;62885;51.374;6.170;2022-12-07T02:56:48;101509.00;;;4.14;94.69
74372;BME280;62885;51.374;6.170;2022-12-07T03:02:31;101502.69;;;4.19;94.72
74372;BME280;62885;51.374;6.170;2022-12-07T03:08:07;101505.16;;;4.23;94.33
74372;BME280;62885;51.374;6.170;2022-12-07T03:16:16;101500.59;;;4.27;94.07
74372;BME280;62885;51.374;6.170;2022-12-07T03:18:53;101497.31;;;4.20;94.40
74372;BME280;62885;51.374;6.170;2022-12-07T03:21:26;101504.31;;;4.23;94.04
74372;BME280;62885;51.374;6.170;2022-12-07T03:23:56;101507.91;;;4.20;94.30
74372;BME280;62885;51.374;6.170;2022-12-07T03:26:29;101507.22;;;4.15;93.79
74372;BME280;62885;51.374;6.170;2022-12-07T03:29:00;101506.56;;;4.08;93.98
74372;BME280;62885;51.374;6.170;2022-12-07T03:31:33;101504.91;;;4.06;93.88
74372;BME280;62885;51.374;6.170;2022-12-07T03:36:39;101504.16;;;4.02;94.17
74372;BME280;62885;51.374;6.170;2022-12-07T03:39:34;101503.44;;;3.97;94.31
74372;BME280;62885;51.374;6.170;2022-12-07T03:42:04;101505.22;;;3.97;94.16
74372;BME280;62885;51.374;6.170;2022-12-07T03:44:31;101497.63;;;3.88;94.44
74372;BME280;62885;51.374;6.170;2022-12-07T03:47:13;101505.47;;;3.91;94.01
74372;BME280;62885;51.374;6.170;2022-12-07T03:49:49;101505.31;;;3.95;94.12
74372;BME280;62885;51.374;6.170;2022-12-07T03:55:00;101499.38;;;3.89;94.45
74372;BME280;62885;51.374;6.170;2022-12-07T03:57:30;101499.25;;;3.92;94.25
74372;BME280;62885;51.374;6.170;2022-12-07T03:59:57;101504.53;;;3.92;94.47
74372;BME280;62885;51.374;6.170;2022-12-07T04:02:25;101510.72;;;3.92;94.01
74372;BME280;62885;51.374;6.170;2022-12-07T04:04:51;101500.28;;;3.88;94.63
74372;BME280;62885;51.374;6.170;2022-12-07T04:07:16;101505.22;;;3.97;94.42
74372;BME280;62885;51.374;6.170;2022-12-07T04:09:44;101505.22;;;3.97;94.65
74372;BME280;62885;51.374;6.170;2022-12-07T04:12:10;101495.59;;;3.96;94.66
74372;BME280;62885;51.374;6.170;2022-12-07T04:14:35;101504.22;;;4.01;94.35
74372;BME280;62885;51.374;6.170;2022-12-07T04:17:01;101503.34;;;4.00;94.26
74372;BME280;62885;51.374;6.170;2022-12-07T04:19:32;101506.00;;;4.00;94.66
74372;BME280;62885;51.374;6.170;2022-12-07T04:22:00;101511.13;;;4.05;94.53
74372;BME280;62885;51.374;6.170;2022-12-07T04:24:26;101506.81;;;4.02;94.45
74372;BME280;62885;51.374;6.170;2022-12-07T04:26:51;101504.06;;;4.05;94.50
74372;BME280;62885;51.374;6.170;2022-12-07T04:29:18;101500.75;;;3.99;94.05
74372;BME280;62885;51.374;6.170;2022-12-07T04:31:44;101496.41;;;3.96;94.32
74372;BME280;62885;51.374;6.170;2022-12-07T04:34:10;101495.47;;;3.99;94.10
74372;BME280;62885;51.374;6.170;2022-12-07T04:36:36;101486.78;;;3.95;94.01
74372;BME280;62885;51.374;6.170;2022-12-07T04:39:02;101485.81;;;3.96;93.99
74372;BME280;62885;51.374;6.170;2022-12-07T04:41:28;101487.56;;;3.97;93.94
74372;BME280;62885;51.374;6.170;2022-12-07T04:44:02;101482.47;;;3.91;94.12
74372;BME280;62885;51.374;6.170;2022-12-07T04:46:30;101485.22;;;3.90;94.24
74372;BME280;62885;51.374;6.170;2022-12-07T04:48:56;101482.34;;;3.96;94.34
74372;BME280;62885;51.374;6.170;2022-12-07T04:51:23;101486.59;;;4.00;94.25
74372;BME280;62885;51.374;6.170;2022-12-07T04:53:49;101486.78;;;3.95;93.88
74372;BME280;62885;51.374;6.170;2022-12-07T04:56:16;101492.97;;;3.94;94.13
74372;BME280;62885;51.374;6.170;2022-12-07T04:58:42;101484.91;;;3.97;93.77
74372;BME280;62885;51.374;6.170;2022-12-07T05:01:08;101485.81;;;3.96;94.05
74372;BME280;62885;51.374;6.170;2022-12-07T05:03:35;101484.91;;;3.97;93.74
74372;BME280;62885;51.374;6.170;2022-12-07T05:06:01;101484.03;;;3.97;94.04
74372;BME280;62885;51.374;6.170;2022-12-07T05:08:26;101477.09;;;3.94;93.58
74372;BME280;62885;51.374;6.170;2022-12-07T05:10:51;101484.88;;;3.99;93.58
74372;BME280;62885;51.374;6.170;2022-12-07T05:13:17;101483.09;;;3.99;93.58
74372;BME280;62885;51.374;6.170;2022-12-07T05:15:42;101483.13;;;3.98;93.56
74372;BME280;62885;51.374;6.170;2022-12-07T05:18:09;101482.16;;;4.00;93.88
74372;BME280;62885;51.374;6.170;2022-12-07T05:20:34;101485.50;;;4.05;93.37
74372;BME280;62885;51.374;6.170;2022-12-07T05:23:00;101487.47;;;4.00;93.95
74372;BME280;62885;51.374;6.170;2022-12-07T05:25:25;101494.28;;;4.07;93.39
74372;BME280;62885;51.374;6.170;2022-12-07T05:27:50;101483.78;;;4.04;93.71
74372;BME280;62885;51.374;6.170;2022-12-07T05:30:16;101493.34;;;4.08;93.71
74372;BME280;62885;51.374;6.170;2022-12-07T05:32:41;101495.84;;;4.13;93.64
74372;BME280;62885;51.374;6.170;2022-12-07T05:35:07;101491.50;;;4.10;93.48
74372;BME280;62885;51.374;6.170;2022-12-07T05:37:32;101487.13;;;4.09;93.37
74372;BME280;62885;51.374;6.170;2022-12-07T05:39:58;101486.31;;;4.07;93.44
74372;BME280;62885;51.374;6.170;2022-12-07T05:42:23;101480.84;;;4.12;92.98
74372;BME280;62885;51.374;6.170;2022-12-07T05:44:49;101478.19;;;4.12;93.07
74372;BME280;62885;51.374;6.170;2022-12-07T05:47:15;101475.59;;;4.10;93.32
74372;BME280;62885;51.374;6.170;2022-12-07T05:49:40;101473.59;;;4.17;93.03
74372;BME280;62885;51.374;6.170;2022-12-07T05:52:06;101463.69;;;4.22;92.68
74372;BME280;62885;51.374;6.170;2022-12-07T05:54:32;101463.69;;;4.22;92.47
74372;BME280;62885;51.374;6.170;2022-12-07T05:56:57;101466.06;;;4.30;92.43
74372;BME280;62885;51.374;6.170;2022-12-07T05:59:23;101464.25;;;4.30;92.26
74372;BME280;62885;51.374;6.170;2022-12-07T06:02:02;101463.31;;;4.31;92.37
74372;BME280;62885;51.374;6.170;2022-12-07T06:04:35;101468.75;;;4.28;91.75
74372;BME280;62885;51.374;6.170;2022-12-07T06:07:02;101474.63;;;4.36;91.72
74372;BME280;62885;51.374;6.170;2022-12-07T06:09:28;101467.47;;;4.38;91.55
74372;BME280;62885;51.374;6.170;2022-12-07T06:11:54;101471.22;;;4.33;91.63
74372;BME280;62885;51.374;6.170;2022-12-07T06:14:39;101470.59;;;4.26;91.49
74372;BME280;62885;51.374;6.170;2022-12-07T06:17:05;101473.38;;;4.23;91.38
74372;BME280;62885;51.374;6.170;2022-12-07T06:19:30;101472.00;;;4.13;91.72
74372;BME280;62885;51.374;6.170;2022-12-07T06:21:56;101470.31;;;4.10;92.24
74372;BME280;62885;51.374;6.170;2022-12-07T06:24:22;101479.38;;;4.03;92.55
74372;BME280;62885;51.374;6.170;2022-12-07T06:26:47;101478.59;;;4.01;92.74
74372;BME280;62885;51.374;6.170;2022-12-07T06:29:13;101480.47;;;3.98;92.98
74372;BME280;62885;51.374;6.170;2022-12-07T06:31:39;101485.72;;;3.99;93.24
74372;BME280;62885;51.374;6.170;2022-12-07T06:34:08;101477.84;;;3.98;93.03
74372;BME280;62885;51.374;6.170;2022-12-07T06:36:37;101480.59;;;3.95;93.50
74372;BME280;62885;51.374;6.170;2022-12-07T06:39:03;101485.91;;;3.95;93.15
74372;BME280;62885;51.374;6.170;2022-12-07T06:41:28;101476.22;;;3.94;93.67
74372;BME280;62885;51.374;6.170;2022-12-07T06:43:54;101481.53;;;3.94;93.05
74372;BME280;62885;51.374;6.170;2022-12-07T06:46:19;101479.69;;;3.96;93.96
74372;BME280;62885;51.374;6.170;2022-12-07T06:48:45;101481.34;;;3.98;93.26
74372;BME280;62885;51.374;6.170;2022-12-07T06:51:10;101486.66;;;3.98;93.55
74372;BME280;62885;51.374;6.170;2022-12-07T06:53:36;101488.59;;;3.93;93.42
74372;BME280;62885;51.374;6.170;2022-12-07T06:56:03;101487.69;;;3.94;93.59
74372;BME280;62885;51.374;6.170;2022-12-07T06:58:29;101491.28;;;3.92;93.39
74372;BME280;62885;51.374;6.170;2022-12-07T07:00:54;101494.81;;;3.92;93.42
74372;BME280;62885;51.374;6.170;2022-12-07T07:03:19;101486.13;;;3.89;93.68
74372;BME280;62885;51.374;6.170;2022-12-07T07:05:45;101491.47;;;3.87;94.04
74372;BME280;62885;51.374;6.170;2022-12-07T07:08:11;101484.56;;;3.83;93.53
74372;BME280;62885;51.374;6.170;2022-12-07T07:10:36;101486.50;;;3.78;94.13
74372;BME280;62885;51.374;6.170;2022-12-07T07:13:03;101483.97;;;3.75;93.98
74372;BME280;62885;51.374;6.170;2022-12-07T07:15:28;101491.84;;;3.77;93.97
74372;BME280;62885;51.374;6.170;2022-12-07T07:17:56;101485.91;;;3.70;93.92
74372;BME280;62885;51.374;6.170;2022-12-07T07:20:21;101489.59;;;3.66;94.44
74372;BME280;62885;51.374;6.170;2022-12-07T07:22:47;101494.94;;;3.64;94.36
74372;BME280;62885;51.374;6.170;2022-12-07T07:25:13;101487.16;;;3.60;94.77
74372;BME280;62885;51.374;6.170;2022-12-07T07:27:38;101494.28;;;3.58;94.27
74372;BME280;62885;51.374;6.170;2022-12-07T07:30:04;101490.81;;;3.56;94.81
74372;BME280;62885;51.374;6.170;2022-12-07T07:32:30;101489.84;;;3.58;95.29
74372;BME280;62885;51.374;6.170;2022-12-07T07:34:55;101485.09;;;3.68;95.07
74372;BME280;62885;51.374;6.170;2022-12-07T07:37:21;101494.03;;;3.65;94.84
74372;BME280;62885;51.374;6.170;2022-12-07T07:39:46;101489.59;;;3.66;94.84
74372;BME280;62885;51.374;6.170;2022-12-07T07:42:12;101490.38;;;3.68;94.92
74372;BME280;62885;51.374;6.170;2022-12-07T07:44:37;101495.88;;;3.62;94.93
74372;BME280;62885;51.374;6.170;2022-12-07T07:47:02;101501.19;;;3.62;95.17
74372;BME280;62885;51.374;6.170;2022-12-07T07:49:28;101494.06;;;3.64;95.23
74372;BME280;62885;51.374;6.170;2022-12-07T07:51:53;101494.06;;;3.64;95.16
74372;BME280;62885;51.374;6.170;2022-12-07T07:54:18;101499.19;;;3.68;94.98
74372;BME280;62885;51.374;6.170;2022-12-07T07:56:44;101501.63;;;3.75;94.66
74372;BME280;62885;51.374;6.170;2022-12-07T07:59:09;101505.34;;;3.69;94.24
74372;BME280;62885;51.374;6.170;2022-12-07T08:01:35;101502.91;;;3.63;94.67
74372;BME280;62885;51.374;6.170;2022-12-07T08:04:00;101506.56;;;3.60;94.60
74372;BME280;62885;51.374;6.170;2022-12-07T08:06:26;101502.00;;;3.64;94.29
74372;BME280;62885;51.374;6.170;2022-12-07T08:08:51;101503.13;;;3.57;94.53
74372;BME280;62885;51.374;6.170;2022-12-07T08:11:17;101502.34;;;3.55;94.65
74372;BME280;62885;51.374;6.170;2022-12-07T08:13:45;101505.00;;;3.55;94.47
74372;BME280;62885;51.374;6.170;2022-12-07T08:16:10;101507.47;;;3.59;94.43
74372;BME280;62885;51.374;6.170;2022-12-07T08:18:40;101508.34;;;3.60;94.34
74372;BME280;62885;51.374;6.170;2022-12-07T08:21:07;101512.72;;;3.61;94.22
74372;BME280;62885;51.374;6.170;2022-12-07T08:23:32;101510.06;;;3.61;94.07
74372;BME280;62885;51.374;6.170;2022-12-07T08:26:09;101509.03;;;3.65;94.12
74372;BME280;62885;51.374;6.170;2022-12-07T08:28:35;101515.19;;;3.65;93.85
74372;BME280;62885;51.374;6.170;2022-12-07T08:31:03;101519.59;;;3.66;93.94
74372;BME280;62885;51.374;6.170;2022-12-07T08:33:28;101514.50;;;3.60;93.65
74372;BME280;62885;51.374;6.170;2022-12-07T08:35:54;101521.44;;;3.63;93.84
74372;BME280;62885;51.374;6.170;2022-12-07T08:38:20;101526.72;;;3.64;93.51
74372;BME280;62885;51.374;6.170;2022-12-07T08:40:54;101524.06;;;3.64;93.57
74372;BME280;62885;51.374;6.170;2022-12-07T08:43:19;101523.72;;;3.73;93.33
74372;BME280;62885;51.374;6.170;2022-12-07T08:45:45;101512.22;;;3.75;92.92
74372;BME280;62885;51.374;6.170;2022-12-07T08:48:13;101523.59;;;3.78;93.45
74372;BME280;62885;51.374;6.170;2022-12-07T08:50:39;101515.31;;;3.87;92.46
74372;BME280;62885;51.374;6.170;2022-12-07T08:53:06;101518.91;;;3.85;92.82
74372;BME280;62885;51.374;6.170;2022-12-07T08:55:33;101515.13;;;3.92;92.92
74372;BME280;62885;51.374;6.170;2022-12-07T08:57:59;101515.19;;;3.90;93.15
74372;BME280;62885;51.374;6.170;2022-12-07T09:00:27;101517.84;;;3.90;92.73
74372;BME280;62885;51.374;6.170;2022-12-07T09:02:53;101501.84;;;3.93;92.59
74372;BME280;62885;51.374;6.170;2022-12-07T09:05:19;101513.25;;;3.95;92.51
74372;BME280;62885;51.374;6.170;2022-12-07T09:07:46;101505.19;;;3.98;92.31
74372;BME280;62885;51.374;6.170;2022-12-07T09:10:12;101507.66;;;4.03;92.47
74372;BME280;62885;51.374;6.170;2022-12-07T09:12:38;101508.44;;;4.06;92.41
74372;BME280;62885;51.374;6.170;2022-12-07T09:15:03;101511.59;;;4.16;92.18
74372;BME280;62885;51.374;6.170;2022-12-07T09:17:32;101510.69;;;4.17;92.17
74372;BME280;62885;51.374;6.170;2022-12-07T09:19:58;101504.31;;;4.23;91.87
74372;BME280;62885;51.374;6.170;2022-12-07T09:22:28;101510.66;;;4.19;91.55
74372;BME280;62885;51.374;6.170;2022-12-07T09:24:54;101518.38;;;4.25;92.26
74372;BME280;62885;51.374;6.170;2022-12-07T09:27:19;101514.72;;;4.27;91.47
74372;BME280;62885;51.374;6.170;2022-12-07T09:29:45;101508.50;;;4.28;91.59
74372;BME280;62885;51.374;6.170;2022-12-07T09:32:10;101511.66;;;4.38;91.28
74372;BME280;62885;51.374;6.170;2022-12-07T09:34:36;101517.78;;;4.40;90.95
74372;BME280;62885;51.374;6.170;2022-12-07T09:37:01;101522.22;;;4.39;90.65
74372;BME280;62885;51.374;6.170;2022-12-07T09:39:28;101524.06;;;4.37;90.65
74372;BME280;62885;51.374;6.170;2022-12-07T09:41:54;101523.19;;;4.37;90.47
74372;BME280;62885;51.374;6.170;2022-12-07T09:44:24;101522.34;;;4.36;91.13
74372;BME280;62885;51.374;6.170;2022-12-07T09:46:52;101524.69;;;4.44;90.18
74372;BME280;62885;51.374;6.170;2022-12-07T09:49:21;101528.63;;;4.57;90.28
74372;BME280;62885;51.374;6.170;2022-12-07T09:51:48;101521.94;;;4.70;89.64
74372;BME280;62885;51.374;6.170;2022-12-07T09:54:24;101522.78;;;4.71;89.85
74372;BME280;62885;51.374;6.170;2022-12-07T09:56:49;101525.31;;;4.74;89.21
74372;BME280;62885;51.374;6.170;2022-12-07T09:59:18;101518.34;;;4.71;89.07
74372;BME280;62885;51.374;6.170;2022-12-07T10:01:46;101519.47;;;4.66;88.96
74372;BME280;62885;51.374;6.170;2022-12-07T10:04:14;101518.47;;;4.68;89.72
74372;BME280;62885;51.374;6.170;2022-12-07T10:06:41;101515.22;;;4.60;89.25
74372;BME280;62885;51.374;6.170;2022-12-07T10:09:14;101517.03;;;4.60;89.80
74372;BME280;62885;51.374;6.170;2022-12-07T10:14:30;101511.38;;;4.69;88.76
74372;BME280;62885;51.374;6.170;2022-12-07T10:16:55;101503.19;;;4.75;89.32
74372;BME280;62885;51.374;6.170;2022-12-07T10:19:30;101500.38;;;4.78;89.10
74372;BME280;62885;51.374;6.170;2022-12-07T10:22:16;101496.81;;;4.79;88.97
74372;BME280;62885;51.374;6.170;2022-12-07T10:24:44;101492.19;;;4.84;88.85
74372;BME280;62885;51.374;6.170;2022-12-07T10:27:22;101494.91;;;4.82;88.54
74372;BME280;62885;51.374;6.170;2022-12-07T10:29:52;101489.28;;;4.90;88.76
74372;BME280;62885;51.374;6.170;2022-12-07T10:34:43;101480.41;;;4.91;88.71
74372;BME280;62885;51.374;6.170;2022-12-07T10:40:18;101472.09;;;5.00;88.58
74372;BME280;62885;51.374;6.170;2022-12-07T10:43:00;101468.44;;;5.03;88.10
74372;BME280;62885;51.374;6.170;2022-12-07T10:45:26;101469.34;;;5.02;88.70
74372;BME280;62885;51.374;6.170;2022-12-07T10:48:33;101457.50;;;5.10;88.24
74372;BME280;62885;51.374;6.170;2022-12-07T10:53:48;101458.06;;;5.18;87.37
74372;BME280;62885;51.374;6.170;2022-12-07T11:12:11;101448.06;;;5.45;86.78
74372;BME280;62885;51.374;6.170;2022-12-07T11:14:58;101446.34;;;5.44;86.81
74372;BME280;62885;51.374;6.170;2022-12-07T11:17:42;101444.41;;;5.48;86.60
74372;BME280;62885;51.374;6.170;2022-12-07T11:21:05;101440.69;;;5.52;86.67
74372;BME280;62885;51.374;6.170;2022-12-07T11:24:43;101431.06;;;5.49;86.77
74372;BME280;62885;51.374;6.170;2022-12-07T11:27:09;101427.94;;;5.60;86.81
74372;BME280;62885;51.374;6.170;2022-12-07T11:29:47;101425.16;;;5.63;85.64
74372;BME280;62885;51.374;6.170;2022-12-07T11:32:25;101427.38;;;5.72;85.53
74372;BME280;62885;51.374;6.170;2022-12-07T11:37:45;101423.47;;;5.81;85.60
74372;BME280;62885;51.374;6.170;2022-12-07T11:40:20;101410.81;;;5.87;85.31
74372;BME280;62885;51.374;6.170;2022-12-07T11:42:55;101410.72;;;5.89;85.32
74372;BME280;62885;51.374;6.170;2022-12-07T11:45:27;101406.16;;;5.92;85.14
74372;BME280;62885;51.374;6.170;2022-12-07T11:47:59;101408.59;;;5.97;85.05
74372;BME280;62885;51.374;6.170;2022-12-07T12:01:04;101398.38;;;6.06;84.20
74372;BME280;62885;51.374;6.170;2022-12-07T12:03:37;101400.13;;;6.07;84.24
74372;BME280;62885;51.374;6.170;2022-12-07T12:06:05;101399.91;;;6.12;83.04
74372;BME280;62885;51.374;6.170;2022-12-07T12:08:56;101402.28;;;6.18;82.99
74372;BME280;62885;51.374;6.170;2022-12-07T12:14:35;101404.63;;;6.24;82.59
74372;BME280;62885;51.374;6.170;2022-12-07T12:22:36;101387.19;;;6.37;82.92
74372;BME280;62885;51.374;6.170;2022-12-07T12:25:05;101391.56;;;6.38;82.63
74372;BME280;62885;51.374;6.170;2022-12-07T12:27:34;101382.72;;;6.38;82.00
74372;BME280;62885;51.374;6.170;2022-12-07T12:30:03;101385.44;;;6.36;81.90
74372;BME280;62885;51.374;6.170;2022-12-07T12:32:39;101379.06;;;6.40;82.18
74372;BME280;62885;51.374;6.170;2022-12-07T12:37:47;101362.31;;;6.38;81.62
74372;BME280;62885;51.374;6.170;2022-12-07T12:48:03;101347.50;;;6.51;82.04
74372;BME280;62885;51.374;6.170;2022-12-07T12:50:38;101352.09;;;6.48;81.63
74372;BME280;62885;51.374;6.170;2022-12-07T12:53:19;101348.19;;;6.55;81.99
74372;BME280;62885;51.374;6.170;2022-12-07T12:59:42;101338.56;;;6.52;81.60
74372;BME280;62885;51.374;6.170;2022-12-07T13:04:49;101340.53;;;6.66;82.07
74372;BME280;62885;51.374;6.170;2022-12-07T13:07:50;101335.38;;;6.63;81.45
74372;BME280;62885;51.374;6.170;2022-12-07T13:13:00;101337.47;;;6.56;81.13
74372;BME280;62885;51.374;6.170;2022-12-07T13:23:24;101323.47;;;6.70;80.91
74372;BME280;62885;51.374;6.170;2022-12-07T13:26:03;101323.66;;;6.67;80.76
74372;BME280;62885;51.374;6.170;2022-12-07T13:28:36;101322.94;;;6.64;81.21
74372;BME280;62885;51.374;6.170;2022-12-07T13:33:53;101318.09;;;6.72;80.69
74372;BME280;62885;51.374;6.170;2022-12-07T13:36:22;101318.00;;;6.73;80.58
74372;BME280;62885;51.374;6.170;2022-12-07T13:38:59;101317.09;;;6.74;80.92
74372;BME280;62885;51.374;6.170;2022-12-07T13:41:29;101315.34;;;6.73;80.41
74372;BME280;62885;51.374;6.170;2022-12-07T13:44:07;101305.19;;;6.81;79.86
74372;BME280;62885;51.374;6.170;2022-12-07T13:46:49;101305.34;;;6.78;79.99
74372;BME280;62885;51.374;6.170;2022-12-07T13:49:25;101308.94;;;6.77;79.34
74372;BME280;62885;51.374;6.170;2022-12-07T13:51:52;101310.72;;;6.77;79.02
74372;BME280;62885;51.374;6.170;2022-12-07T13:54:18;101301.81;;;6.78;79.03
74372;BME280;62885;51.374;6.170;2022-12-07T13:56:49;101305.50;;;6.75;79.13
74372;BME280;62885;51.374;6.170;2022-12-07T13:59:24;101301.44;;;6.68;79.19
74372;BME280;62885;51.374;6.170;2022-12-07T14:01:51;101298.91;;;6.65;79.19
74372;BME280;62885;51.374;6.170;2022-12-07T14:06:49;101294.44;;;6.66;79.13
74372;BME280;62885;51.374;6.170;2022-12-07T14:09:21;101292.09;;;6.59;79.23
74372;BME280;62885;51.374;6.170;2022-12-07T14:11:48;101289.66;;;6.55;79.17
74372;BME280;62885;51.374;6.170;2022-12-07T14:14:19;101290.53;;;6.55;79.67
74372;BME280;62885;51.374;6.170;2022-12-07T14:16:56;101283.66;;;6.51;79.97
74372;BME280;62885;51.374;6.170;2022-12-07T14:19:51;101272.53;;;6.43;80.26
74372;BME280;62885;51.374;6.170;2022-12-07T14:22:35;101271.59;;;6.44;80.77
74372;BME280;62885;51.374;6.170;2022-12-07T14:27:33;101274.00;;;6.32;80.16
74372;BME280;62885;51.374;6.170;2022-12-07T14:30:00;101272.56;;;6.25;80.55
74372;BME280;62885;51.374;6.170;2022-12-07T14:32:28;101278.81;;;6.24;80.12
74372;BME280;62885;51.374;6.170;2022-12-07T14:35:10;101268.56;;;6.16;80.24
74372;BME280;62885;51.374;6.170;2022-12-07T14:37:37;101263.09;;;6.19;80.01
74372;BME280;62885;51.374;6.170;2022-12-07T14:40:03;101260.44;;;6.19;79.96
74372;BME280;62885;51.374;6.170;2022-12-07T14:42:30;101260.44;;;6.19;80.30
74372;BME280;62885;51.374;6.170;2022-12-07T14:44:57;101259.66;;;6.17;80.45
74372;BME280;62885;51.374;6.170;2022-12-07T14:47:23;101258.81;;;6.16;81.14
74372;BME280;62885;51.374;6.170;2022-12-07T14:49:49;101258.19;;;6.11;80.78
74372;BME280;62885;51.374;6.170;2022-12-07T14:52:21;101258.31;;;6.08;81.12
74372;BME280;62885;51.374;6.170;2022-12-07T14:54:47;101247.97;;;6.02;81.44
74372;BME280;62885;51.374;6.170;2022-12-07T14:57:12;101251.56;;;6.01;81.42
74372;BME280;62885;51.374;6.170;2022-12-07T14:59:38;101253.59;;;5.96;82.35
74372;BME280;62885;51.374;6.170;2022-12-07T15:02:04;101254.63;;;5.94;82.58